City Of Industry, CA (91716)

7:13 PM PDT on August 30, 2014 (GMT -0700)
MesoWest College Peak CA US LOXWFO | Change Station
CLOSE
Current Station
Personal Weather Station
Location: Whittier, CA
Elevation: 1153 ft
Nearby Weather Stations

Elev 1153 ft 34.02 °N, 118.01 °W | Updated 42 minutes ago

Clear
Clear
82 °F
Feels Like 83 °F
N
6
Wind Variable Wind from SW
Gusts 9.0 mph

Today
High -- | Low -- °F
--% Chance of Precip.
Yesterday
High -- | Low -- °F
Precip. -- in
6:24 AM 7:20 PM
Waxing Crescent, 26% visible
Pressure 29.73 in
Visibility 10.0 miles
Clouds Clear
Heat Index 83 °F
Dew Point 63 °F
Humidity 52%
Rainfall -999.00 in
Snow Depth Not available.
UV 0 out of 12
Pollen 8.20 out of 12
Ozone Good
Flu Activity Not available.
METAR KFUL 310153Z 18006KT 10SM CLR 28/17 A2973 RMK AO2 SLP065 T02780167

More Conditions Fewer Conditions

Pressure 29.73 in
Visibility 10.0 miles
Clouds Clear
Heat Index 83 °F
Dew Point 63 °F
Humidity 52%
Rainfall -999.00 in
Snow Depth Not available.
UV 0 out of 12
Pollen 8.20 out of 12
Ozone Good
Flu Activity Not available.
METAR KFUL 310153Z 18006KT 10SM CLR 28/17 A2973 RMK AO2 SLP065 T02780167

More Conditions Fewer Conditions

10-Day Weather Forecast

Almanac

Astronomy

Aug. 30, 2014 Rise Set
Actual Time 6:24 AM PDT 7:20 PM PDT
Civil Twilight 5:58 AM PDT 7:45 PM PDT
Nautical Twilight 5:28 AM PDT 8:15 PM PDT
Astronomical Twilight 4:56 AM PDT 8:47 PM PDT
Moon 11:01 AM PDT (8/30) 10:13 PM PDT (8/30)
Length of Visible Light 13h 47m
Length of Day
12h 56m
Tomorrow will be 2m 0s shorter.
Waxing Crescent, 26% of the Moon is Illuminated
Today
Waxing Crescent
Sep 2
First Quarter
Sep 8
Full
Sep 15
Last Quarter
Sep 24
New

Today's Extremes

State Highs State Lows

Community

WunderPhotos

Upload Photos

1,748,736 photos uploaded!

Nearby

Air Quality

  Air Quality AQ Index Pollutant
Yesterday Moderate
OZONE
Current Good
OZONE
Sunday Good
PM10
Sunday Moderate
OZONE
Sunday Good
CO
Sunday Good
NO2

Snow Depth

Station Depth Elevation
Leavitt Meadows 0 in 7200 ft
Summit Meadow 0 in 9122 ft
Monitor Pass 0 in 8350 ft
Hagan's Meadow 0 in 8000 ft
Rubicon #2 0 in 7500 ft

Earthquake Activity

City Distance Mag. Time & Date
Malibu, California 66 miles 2.5 8:11 AM PDT
2014-08-30
Minimum magnitude displayed is 2.5.

Coastal Water Temperatures

Place Temperature
Santa Monica Pier 73.0 °F
Los Angeles, CA 66.9 °F
La Jolla, CA 69.1 °F

Nearby Weather Stations